Time;durP1;ratioP1;P1;durP2;ratioP2;P2;SDS_P1;SDS_P2;PMS_P1;PMS_P2;Temp;Humidity;BMP_temperature;BMP_pressure;BME280_temperature;BME280_humidity;BME280_pressure;Samples;Min_cycle;Max_cycle;Signal;HPM_P1;HPM_P2
2022/05/29 00:01:39;;;;;;;;;1.00;1.00;;;;;;;;5028849;28;45590;-66
2022/05/29 00:04:04;;;;;;;;;1.00;1.00;;;;;;;;5034365;28;45395;-66
2022/05/29 00:06:35;;;;;;;;;1.00;1.00;;;;;;;;5009184;28;45655;-65
2022/05/29 00:09:00;;;;;;;;;0.00;0.00;;;;;;;;5009767;28;45655;-65
2022/05/29 00:11:25;;;;;;;;;1.00;1.00;;;;;;;;5012365;28;47337;-66
2022/05/29 00:13:50;;;;;;;;;2.00;2.00;;;;;;;;5029986;28;45505;-65
2022/05/29 00:16:16;;;;;;;;;1.00;1.00;;;;;;;;5027146;28;45830;-66
2022/05/29 00:18:43;;;;;;;;;0.00;0.00;;;;;;;;4998320;28;45531;-65
2022/05/29 00:21:08;;;;;;;;;1.75;1.25;;;;;;;;5030277;28;45974;-67
2022/05/29 00:23:40;;;;;;;;;1.00;1.00;;;;;;;;5039754;28;45612;-66
2022/05/29 00:26:05;;;;;;;;;1.00;1.00;;;;;;;;5018546;28;45482;-65
2022/05/29 00:28:31;;;;;;;;;1.75;1.00;;;;;;;;5021947;28;45432;-66
2022/05/29 00:30:56;;;;;;;;;2.50;2.25;;;;;;;;5011381;28;47504;-66
2022/05/29 00:33:21;;;;;;;;;1.00;1.00;;;;;;;;5030466;28;45534;-65
2022/05/29 00:35:46;;;;;;;;;0.50;0.50;;;;;;;;5033111;28;46491;-65
2022/05/29 00:38:13;;;;;;;;;1.00;1.00;;;;;;;;5011573;28;45599;-66
2022/05/29 00:40:57;;;;;;;;;1.00;0.00;;;;;;;;5028088;28;45565;-66
2022/05/29 00:43:22;;;;;;;;;1.00;1.00;;;;;;;;5023428;28;45521;-65
2022/05/29 00:45:53;;;;;;;;;4.25;1.50;;;;;;;;5001226;28;48225;-65
2022/05/29 00:48:19;;;;;;;;;1.00;1.00;;;;;;;;5027714;28;45569;-66
2022/05/29 00:50:46;;;;;;;;;0.50;0.50;;;;;;;;4994712;28;45723;-64
2022/05/29 00:53:14;;;;;;;;;0.50;0.50;;;;;;;;5008497;28;45897;-65
2022/05/29 00:55:40;;;;;;;;;1.50;1.50;;;;;;;;5000832;28;45434;-65
2022/05/29 00:58:06;;;;;;;;;2.00;1.00;;;;;;;;5005687;28;45414;-65
2022/05/29 01:00:32;;;;;;;;;1.75;1.75;;;;;;;;5010241;28;46564;-65
2022/05/29 01:02:59;;;;;;;;;1.00;1.00;;;;;;;;4985575;28;45832;-65
2022/05/29 01:05:25;;;;;;;;;0.00;0.00;;;;;;;;4993817;28;45489;-66
2022/05/29 01:07:53;;;;;;;;;1.00;1.00;;;;;;;;5010450;28;46045;-65
2022/05/29 01:10:19;;;;;;;;;0.75;0.75;;;;;;;;5006173;28;45458;-65
2022/05/29 01:12:57;;;;;;;;;1.50;1.50;;;;;;;;5008670;28;45550;-65
2022/05/29 01:15:42;;;;;;;;;2.75;2.00;;;;;;;;5011184;28;45699;-65
2022/05/29 01:18:26;;;;;;;;;1.25;1.00;;;;;;;;4993792;28;45407;-65
2022/05/29 01:21:03;;;;;;;;;3.00;1.00;;;;;;;;5013489;28;45575;-65
2022/05/29 01:23:31;;;;;;;;;0.00;0.00;;;;;;;;5014369;28;45656;-65
2022/05/29 01:26:15;;;;;;;;;1.00;1.00;;;;;;;;4994209;28;45414;-65
2022/05/29 01:28:46;;;;;;;;;1.00;1.00;;;;;;;;5010393;28;45470;-66
2022/05/29 01:31:41;;;;;;;;;0.00;0.00;;;;;;;;5011561;28;45480;-66
2022/05/29 01:34:12;;;;;;;;;1.00;1.00;;;;;;;;4985157;28;45435;-66
2022/05/29 01:36:52;;;;;;;;;3.00;1.00;;;;;;;;5012081;28;45564;-66
2022/05/29 01:39:31;;;;;;;;;1.25;0.75;;;;;;;;4996632;28;45464;-63
2022/05/29 01:41:57;;;;;;;;;4.00;1.00;;;;;;;;5013344;28;46466;-66
2022/05/29 01:44:22;;;;;;;;;0.00;0.00;;;;;;;;5015743;28;45501;-64
2022/05/29 01:46:51;;;;;;;;;1.50;1.50;;;;;;;;5011913;28;45693;-65
2022/05/29 01:49:16;;;;;;;;;1.00;1.00;;;;;;;;5023190;28;45430;-67
2022/05/29 01:52:20;;;;;;;;;3.00;2.00;;;;;;;;5027525;28;47616;-67
2022/05/29 01:54:49;;;;;;;;;1.00;1.00;;;;;;;;4960471;28;45610;-66
2022/05/29 01:57:16;;;;;;;;;3.25;2.50;;;;;;;;4965145;28;45504;-66
2022/05/29 01:59:47;;;;;;;;;1.00;1.00;;;;;;;;4959539;28;45623;-66
2022/05/29 02:02:15;;;;;;;;;3.00;2.00;;;;;;;;4952044;28;47115;-65
2022/05/29 02:04:46;;;;;;;;;1.50;1.50;;;;;;;;4968012;28;45495;-65
2022/05/29 02:10:17;;;;;;;;;1.00;1.00;;;;;;;;4967385;28;45556;-65
2022/05/29 02:12:46;;;;;;;;;1.00;1.00;;;;;;;;4965743;28;46419;-65
2022/05/29 02:15:14;;;;;;;;;1.50;1.50;;;;;;;;4967775;28;45584;-66
2022/05/29 02:17:42;;;;;;;;;1.00;1.00;;;;;;;;4971695;28;45395;-65
2022/05/29 02:20:07;;;;;;;;;1.00;1.00;;;;;;;;4965575;28;45440;-64
2022/05/29 02:22:35;;;;;;;;;0.75;0.75;;;;;;;;4967894;28;47734;-65
2022/05/29 02:25:02;;;;;;;;;2.00;2.00;;;;;;;;4983587;28;45641;-64
2022/05/29 02:27:44;;;;;;;;;2.00;2.00;;;;;;;;5015525;28;45486;-66
2022/05/29 02:30:10;;;;;;;;;2.00;0.50;;;;;;;;5030485;28;45727;-64
2022/05/29 02:32:41;;;;;;;;;2.00;1.00;;;;;;;;5028386;28;46058;-64
2022/05/29 02:35:06;;;;;;;;;1.00;1.00;;;;;;;;5029760;28;45462;-64
2022/05/29 02:37:35;;;;;;;;;1.50;1.50;;;;;;;;5008453;28;45423;-66
2022/05/29 02:40:16;;;;;;;;;1.75;1.75;;;;;;;;5021777;28;45536;-66
2022/05/29 02:42:45;;;;;;;;;2.00;2.00;;;;;;;;5029727;28;46579;-65
2022/05/29 02:45:19;;;;;;;;;3.00;2.00;;;;;;;;5017771;28;45446;-66
2022/05/29 02:47:44;;;;;;;;;2.25;2.25;;;;;;;;4995324;28;45470;-65
2022/05/29 02:50:12;;;;;;;;;3.50;1.25;;;;;;;;5009261;28;45529;-66
2022/05/29 02:52:37;;;;;;;;;2.00;2.00;;;;;;;;5010879;28;46597;-66
2022/05/29 02:55:03;;;;;;;;;1.25;1.25;;;;;;;;5007498;28;45577;-64
2022/05/29 02:57:29;;;;;;;;;3.25;2.00;;;;;;;;4992803;28;45601;-65
2022/05/29 02:59:57;;;;;;;;;2.00;1.00;;;;;;;;5011834;28;45375;-65
2022/05/29 03:02:35;;;;;;;;;2.00;2.00;;;;;;;;5012036;28;46014;-65
2022/05/29 03:05:03;;;;;;;;;2.00;1.25;;;;;;;;5009451;28;45479;-65
2022/05/29 03:07:28;;;;;;;;;3.00;2.00;;;;;;;;4989880;28;45889;-65
2022/05/29 03:10:12;;;;;;;;;1.25;1.25;;;;;;;;4999990;28;45510;-64
2022/05/29 03:12:46;;;;;;;;;3.00;2.00;;;;;;;;5009081;28;47720;-66
2022/05/29 03:15:30;;;;;;;;;1.00;1.00;;;;;;;;5010334;28;45641;-65
2022/05/29 03:18:14;;;;;;;;;3.00;2.00;;;;;;;;5009811;28;45364;-65
2022/05/29 03:20:49;;;;;;;;;2.50;1.00;;;;;;;;5012625;28;45467;-65
2022/05/29 03:23:21;;;;;;;;;2.00;2.00;;;;;;;;4988747;28;47730;-65
2022/05/29 03:25:55;;;;;;;;;2.00;1.50;;;;;;;;5002438;28;46090;-65
2022/05/29 03:28:29;;;;;;;;;1.00;1.00;;;;;;;;5013151;28;45562;-66
2022/05/29 03:30:56;;;;;;;;;1.25;1.00;;;;;;;;5014027;28;45940;-64
2022/05/29 03:33:22;;;;;;;;;2.00;1.00;;;;;;;;5008634;28;46711;-66
2022/05/29 03:35:53;;;;;;;;;1.00;1.00;;;;;;;;5011937;28;45337;-65
2022/05/29 03:38:18;;;;;;;;;1.00;1.00;;;;;;;;5011387;28;45570;-64
2022/05/29 03:40:45;;;;;;;;;0.50;0.50;;;;;;;;5009685;28;45363;-66
2022/05/29 03:43:10;;;;;;;;;2.00;2.00;;;;;;;;5008784;28;45446;-64
2022/05/29 03:45:35;;;;;;;;;3.00;2.00;;;;;;;;5025211;28;45577;-65
2022/05/29 03:48:02;;;;;;;;;1.00;1.00;;;;;;;;5028409;28;45319;-65
2022/05/29 03:50:27;;;;;;;;;1.00;1.00;;;;;;;;5030312;28;45588;-65
2022/05/29 03:52:53;;;;;;;;;1.25;1.00;;;;;;;;5030644;28;45541;-65
2022/05/29 03:55:24;;;;;;;;;3.00;2.00;;;;;;;;5014958;28;46383;-65
2022/05/29 03:57:50;;;;;;;;;2.50;1.25;;;;;;;;5031056;28;45545;-66
2022/05/29 04:00:16;;;;;;;;;3.00;1.75;;;;;;;;5032616;28;45809;-65
2022/05/29 04:02:41;;;;;;;;;3.00;2.00;;;;;;;;5030807;28;45508;-65
2022/05/29 04:05:10;;;;;;;;;1.00;1.00;;;;;;;;5031570;28;45464;-65
2022/05/29 04:13:04;;;;;;;;;3.50;1.00;;;;;;;;5033041;28;45821;-64
2022/05/29 04:15:29;;;;;;;;;1.75;1.75;;;;;;;;5032954;28;45903;-64
2022/05/29 04:17:54;;;;;;;;;1.25;1.25;;;;;;;;5034283;28;45386;-65
2022/05/29 04:20:21;;;;;;;;;4.00;1.75;;;;;;;;5013332;28;45206;-64
2022/05/29 04:22:46;;;;;;;;;1.00;1.00;;;;;;;;5029711;28;46311;-65
2022/05/29 04:25:11;;;;;;;;;2.00;0.75;;;;;;;;5032673;28;45324;-64
2022/05/29 04:27:36;;;;;;;;;2.00;2.00;;;;;;;;5034051;28;45386;-63
2022/05/29 04:30:02;;;;;;;;;3.00;2.00;;;;;;;;5033132;28;45389;-65
2022/05/29 04:35:11;;;;;;;;;2.00;2.00;;;;;;;;5031651;28;45343;-65
2022/05/29 04:37:36;;;;;;;;;1.00;1.00;;;;;;;;5032930;28;45708;-65
2022/05/29 04:40:02;;;;;;;;;1.50;1.50;;;;;;;;5032997;28;45751;-65
2022/05/29 04:42:27;;;;;;;;;2.25;1.50;;;;;;;;5033090;28;46213;-65
2022/05/29 04:44:52;;;;;;;;;3.00;1.25;;;;;;;;5023417;28;45474;-65
2022/05/29 04:47:18;;;;;;;;;1.00;1.00;;;;;;;;4996195;28;45528;-65
2022/05/29 04:49:43;;;;;;;;;1.75;1.75;;;;;;;;4970052;28;45772;-65
2022/05/29 04:52:09;;;;;;;;;1.00;1.00;;;;;;;;5011590;28;48315;-65
2022/05/29 04:54:35;;;;;;;;;2.00;1.00;;;;;;;;4994397;28;45773;-65
2022/05/29 04:57:00;;;;;;;;;3.00;2.25;;;;;;;;5012891;28;45370;-65
2022/05/29 04:59:26;;;;;;;;;1.00;1.00;;;;;;;;5015109;28;45438;-65
2022/05/29 05:01:52;;;;;;;;;1.25;1.00;;;;;;;;5011273;28;46739;-64
2022/05/29 05:04:17;;;;;;;;;2.00;2.00;;;;;;;;5011939;28;45558;-64
2022/05/29 05:06:42;;;;;;;;;1.25;1.25;;;;;;;;5012696;28;45270;-64
2022/05/29 05:09:07;;;;;;;;;1.00;1.00;;;;;;;;5012758;28;45411;-65
2022/05/29 05:11:33;;;;;;;;;2.00;2.00;;;;;;;;5014492;28;45916;-65
2022/05/29 05:13:58;;;;;;;;;3.00;1.00;;;;;;;;5012482;28;47877;-64
2022/05/29 05:16:23;;;;;;;;;1.50;1.50;;;;;;;;5012712;28;45573;-64
2022/05/29 05:18:48;;;;;;;;;2.00;1.00;;;;;;;;4994358;28;45399;-64
2022/05/29 05:21:13;;;;;;;;;1.50;1.00;;;;;;;;5010818;28;47333;-65
2022/05/29 05:23:40;;;;;;;;;2.00;2.00;;;;;;;;5014353;28;45661;-64
2022/05/29 05:26:09;;;;;;;;;3.00;2.00;;;;;;;;5012335;28;45434;-64
2022/05/29 05:28:35;;;;;;;;;1.25;1.25;;;;;;;;5012297;28;45503;-65
2022/05/29 05:31:00;;;;;;;;;1.00;1.00;;;;;;;;5012057;28;45529;-64
2022/05/29 05:33:25;;;;;;;;;1.50;1.00;;;;;;;;5011673;28;45932;-65
2022/05/29 05:35:51;;;;;;;;;1.50;1.50;;;;;;;;5008935;28;45375;-64
2022/05/29 05:38:16;;;;;;;;;1.75;1.75;;;;;;;;4990343;28;45375;-65
2022/05/29 05:40:41;;;;;;;;;1.00;1.00;;;;;;;;4990080;28;47780;-64
2022/05/29 05:43:07;;;;;;;;;2.00;2.00;;;;;;;;5010451;28;46103;-64
2022/05/29 05:45:32;;;;;;;;;3.00;1.75;;;;;;;;5011644;28;45482;-65
2022/05/29 05:47:58;;;;;;;;;1.00;1.00;;;;;;;;5012652;28;45391;-65
2022/05/29 05:50:23;;;;;;;;;3.25;1.00;;;;;;;;5013231;28;45506;-65
2022/05/29 05:52:48;;;;;;;;;3.25;2.50;;;;;;;;4990587;28;45960;-65
2022/05/29 05:55:14;;;;;;;;;3.25;2.00;;;;;;;;5004244;28;45795;-66
2022/05/29 05:57:39;;;;;;;;;0.00;0.00;;;;;;;;5011927;28;45487;-64
2022/05/29 06:00:06;;;;;;;;;1.00;1.00;;;;;;;;5013109;28;46604;-67
2022/05/29 06:02:31;;;;;;;;;4.00;1.75;;;;;;;;5013722;28;45437;-64
2022/05/29 06:04:57;;;;;;;;;1.00;1.00;;;;;;;;5011782;28;45566;-65
2022/05/29 06:07:22;;;;;;;;;2.75;1.25;;;;;;;;5006800;28;45392;-65
2022/05/29 06:09:47;;;;;;;;;2.00;2.00;;;;;;;;4999031;28;47862;-64
2022/05/29 06:12:12;;;;;;;;;2.00;1.00;;;;;;;;5011599;28;45531;-65
2022/05/29 06:14:37;;;;;;;;;2.00;1.00;;;;;;;;5013352;28;46019;-65
2022/05/29 06:17:03;;;;;;;;;2.00;2.00;;;;;;;;5010131;28;45495;-65
2022/05/29 06:19:29;;;;;;;;;1.00;1.00;;;;;;;;5010001;28;46003;-65
2022/05/29 06:21:54;;;;;;;;;1.00;1.00;;;;;;;;5009822;28;46036;-64
2022/05/29 06:24:19;;;;;;;;;1.75;1.75;;;;;;;;5011501;28;45435;-66
2022/05/29 06:26:44;;;;;;;;;1.75;1.75;;;;;;;;4995902;28;45407;-64
2022/05/29 06:29:10;;;;;;;;;1.00;0.50;;;;;;;;5009341;28;45389;-65
2022/05/29 06:31:35;;;;;;;;;1.00;1.00;;;;;;;;5006380;28;45488;-64
2022/05/29 06:34:00;;;;;;;;;2.25;2.00;;;;;;;;5000574;28;46022;-64
2022/05/29 06:36:26;;;;;;;;;3.00;2.00;;;;;;;;4993519;28;45767;-65
2022/05/29 06:38:52;;;;;;;;;3.00;1.00;;;;;;;;5012341;28;46038;-64
2022/05/29 06:41:20;;;;;;;;;2.00;1.00;;;;;;;;5011832;28;45837;-65
2022/05/29 06:43:45;;;;;;;;;1.00;1.00;;;;;;;;4993950;28;45516;-65
2022/05/29 06:46:11;;;;;;;;;1.00;1.00;;;;;;;;5029611;28;45732;-67
2022/05/29 06:48:38;;;;;;;;;1.00;1.00;;;;;;;;5011834;28;48202;-64
2022/05/29 06:51:08;;;;;;;;;1.00;1.00;;;;;;;;5007422;28;45578;-66
2022/05/29 06:53:34;;;;;;;;;1.25;1.25;;;;;;;;5031351;28;47539;-66
2022/05/29 06:55:59;;;;;;;;;2.50;1.00;;;;;;;;5016068;28;45507;-66
2022/05/29 06:58:24;;;;;;;;;1.00;1.00;;;;;;;;5013786;28;46171;-67
2022/05/29 07:09:04;;;;;;;;;0.25;0.25;;;;;;;;5013638;28;45957;-66
2022/05/29 07:11:30;;;;;;;;;2.00;1.25;;;;;;;;5022665;28;45662;-64
2022/05/29 07:13:56;;;;;;;;;1.50;1.00;;;;;;;;5023975;28;45484;-66
2022/05/29 07:16:21;;;;;;;;;1.00;1.00;;;;;;;;5006802;28;45358;-65
2022/05/29 07:18:50;;;;;;;;;0.50;0.50;;;;;;;;5014211;28;46322;-67
2022/05/29 07:21:16;;;;;;;;;0.75;0.75;;;;;;;;5014325;28;45507;-65
2022/05/29 07:23:41;;;;;;;;;1.00;1.00;;;;;;;;5021122;28;45624;-66
2022/05/29 07:26:06;;;;;;;;;2.50;0.75;;;;;;;;5028787;28;45388;-67
2022/05/29 07:28:31;;;;;;;;;5.00;1.00;;;;;;;;5003580;28;47217;-64
2022/05/29 07:30:57;;;;;;;;;2.75;1.00;;;;;;;;5004174;28;45364;-66
2022/05/29 07:33:23;;;;;;;;;1.75;1.00;;;;;;;;5011148;28;45551;-65
2022/05/29 07:35:48;;;;;;;;;1.00;1.00;;;;;;;;5031216;28;45414;-66
2022/05/29 07:38:13;;;;;;;;;4.75;2.00;;;;;;;;5013523;28;48765;-66
2022/05/29 07:40:39;;;;;;;;;2.00;2.00;;;;;;;;5028603;28;45983;-66
2022/05/29 07:43:19;;;;;;;;;0.50;0.50;;;;;;;;5029635;28;45918;-66
2022/05/29 07:45:56;;;;;;;;;1.25;1.25;;;;;;;;5012444;28;45501;-64
2022/05/29 07:48:25;;;;;;;;;3.00;1.25;;;;;;;;5027247;28;46374;-67
2022/05/29 07:50:50;;;;;;;;;0.00;0.00;;;;;;;;5029640;28;45457;-67
2022/05/29 07:53:16;;;;;;;;;1.00;1.00;;;;;;;;5008888;28;45477;-66
2022/05/29 07:55:43;;;;;;;;;0.50;0.50;;;;;;;;5007738;28;46086;-66
2022/05/29 07:58:09;;;;;;;;;1.00;1.00;;;;;;;;5025129;28;48671;-66
2022/05/29 08:00:34;;;;;;;;;2.00;1.00;;;;;;;;5022300;28;45591;-65
2022/05/29 08:03:00;;;;;;;;;1.00;1.00;;;;;;;;5022010;28;45898;-65
2022/05/29 08:05:26;;;;;;;;;1.00;1.00;;;;;;;;5015910;28;46002;-67
2022/05/29 08:07:52;;;;;;;;;2.75;1.75;;;;;;;;5021971;28;45789;-67
2022/05/29 08:10:18;;;;;;;;;2.00;2.00;;;;;;;;5016197;28;45469;-66
2022/05/29 08:12:43;;;;;;;;;1.25;1.25;;;;;;;;5026727;28;45528;-66
2022/05/29 08:15:10;;;;;;;;;1.25;1.25;;;;;;;;5017045;28;45680;-66
2022/05/29 08:17:35;;;;;;;;;0.50;0.50;;;;;;;;5005682;28;46717;-65
2022/05/29 08:20:00;;;;;;;;;1.00;1.00;;;;;;;;5014867;28;45666;-66
2022/05/29 08:22:26;;;;;;;;;2.00;1.00;;;;;;;;5028044;28;45584;-67
2022/05/29 08:33:05;;;;;;;;;2.25;1.00;;;;;;;;5031269;28;45903;-67
2022/05/29 08:35:31;;;;;;;;;1.75;1.00;;;;;;;;5027295;28;45365;-67
2022/05/29 08:37:56;;;;;;;;;1.00;1.00;;;;;;;;5013397;28;47754;-67
2022/05/29 08:40:22;;;;;;;;;2.25;1.00;;;;;;;;5031061;28;45454;-67
2022/05/29 08:42:48;;;;;;;;;1.00;1.00;;;;;;;;5031148;28;45511;-68
2022/05/29 08:45:15;;;;;;;;;0.00;0.00;;;;;;;;5028773;28;45493;-67
2022/05/29 08:47:41;;;;;;;;;1.50;1.00;;;;;;;;5028196;28;48669;-67
2022/05/29 08:50:10;;;;;;;;;0.25;0.25;;;;;;;;5040662;28;45909;-66
2022/05/29 08:52:53;;;;;;;;;0.00;0.00;;;;;;;;5026971;28;45405;-67
2022/05/29 08:55:26;;;;;;;;;1.75;1.75;;;;;;;;5032475;28;45386;-67
2022/05/29 08:57:59;;;;;;;;;1.00;1.00;;;;;;;;5013767;28;48675;-66
2022/05/29 09:00:37;;;;;;;;;0.00;0.00;;;;;;;;5018021;28;45624;-68
2022/05/29 09:03:14;;;;;;;;;0.00;0.00;;;;;;;;5016181;28;45728;-66
2022/05/29 09:05:52;;;;;;;;;2.00;1.00;;;;;;;;4998246;28;45996;-66
2022/05/29 09:08:20;;;;;;;;;1.75;0.75;;;;;;;;5009819;28;47763;-67
2022/05/29 09:10:47;;;;;;;;;0.25;0.25;;;;;;;;5028009;28;45643;-66
2022/05/29 09:13:17;;;;;;;;;0.50;0.50;;;;;;;;5032469;28;45602;-67
2022/05/29 09:15:51;;;;;;;;;0.25;0.25;;;;;;;;5015792;28;45418;-66
2022/05/29 09:18:24;;;;;;;;;1.00;1.00;;;;;;;;5025237;28;45820;-67
2022/05/29 09:20:51;;;;;;;;;2.00;2.00;;;;;;;;5015163;28;45632;-66
2022/05/29 09:23:25;;;;;;;;;1.00;1.00;;;;;;;;5008717;28;45469;-65
2022/05/29 09:25:51;;;;;;;;;1.00;1.00;;;;;;;;5020738;28;45378;-66
2022/05/29 09:28:24;;;;;;;;;4.00;4.00;;;;;;;;5016074;28;48552;-65
2022/05/29 09:30:49;;;;;;;;;2.00;0.75;;;;;;;;5007874;28;46061;-66
2022/05/29 09:33:20;;;;;;;;;0.50;0.50;;;;;;;;5015430;28;45476;-65
2022/05/29 09:35:57;;;;;;;;;1.75;0.50;;;;;;;;5015019;28;45422;-65
2022/05/29 09:38:28;;;;;;;;;2.75;1.00;;;;;;;;5029194;28;45769;-66
2022/05/29 09:40:59;;;;;;;;;2.00;2.00;;;;;;;;5024817;28;45465;-66
2022/05/29 09:43:26;;;;;;;;;10.50;9.25;;;;;;;;5011418;28;45628;-65
2022/05/29 09:45:51;;;;;;;;;3.00;1.00;;;;;;;;4995682;28;45522;-66
2022/05/29 09:51:16;;;;;;;;;1.50;1.50;;;;;;;;4998241;28;45497;-67
2022/05/29 09:53:44;;;;;;;;;1.00;1.00;;;;;;;;5010611;28;45535;-67
2022/05/29 09:56:10;;;;;;;;;1.50;1.50;;;;;;;;5008180;28;45723;-66
2022/05/29 09:58:46;;;;;;;;;2.00;2.00;;;;;;;;5009107;28;45628;-65
2022/05/29 10:01:11;;;;;;;;;1.25;1.25;;;;;;;;4993524;28;45792;-67
2022/05/29 10:03:43;;;;;;;;;0.75;0.75;;;;;;;;5008343;28;45485;-66
2022/05/29 10:06:41;;;;;;;;;2.75;2.75;;;;;;;;5004757;28;46219;-69
2022/05/29 10:09:07;;;;;;;;;8.25;6.00;;;;;;;;4987492;28;45884;-69
2022/05/29 10:11:32;;;;;;;;;3.00;2.00;;;;;;;;4976934;28;45879;-68
2022/05/29 10:14:00;;;;;;;;;7.00;6.75;;;;;;;;4986932;28;45599;-68
2022/05/29 10:16:33;;;;;;;;;1.00;1.00;;;;;;;;4987359;28;45647;-68
2022/05/29 10:18:59;;;;;;;;;5.00;1.75;;;;;;;;4988748;28;47961;-68
2022/05/29 10:21:27;;;;;;;;;8.25;7.75;;;;;;;;4991029;28;45751;-68
2022/05/29 10:24:11;;;;;;;;;3.75;3.50;;;;;;;;5001153;28;45483;-68
2022/05/29 10:26:36;;;;;;;;;2.00;1.00;;;;;;;;4976445;28;45498;-66
2022/05/29 10:29:11;;;;;;;;;4.25;4.25;;;;;;;;4992422;28;48566;-67
2022/05/29 10:31:38;;;;;;;;;2.25;2.00;;;;;;;;5003667;28;45653;-67
2022/05/29 10:34:04;;;;;;;;;1.75;1.75;;;;;;;;5005618;28;45591;-69
2022/05/29 10:36:29;;;;;;;;;2.00;2.00;;;;;;;;5008442;28;45609;-67
2022/05/29 10:39:05;;;;;;;;;1.50;1.50;;;;;;;;5009902;28;46451;-67
2022/05/29 10:41:31;;;;;;;;;3.75;3.75;;;;;;;;4995009;28;45655;-66
2022/05/29 10:43:57;;;;;;;;;9.00;5.25;;;;;;;;5010887;28;45509;-66
2022/05/29 10:46:24;;;;;;;;;5.75;3.75;;;;;;;;4993288;28;45692;-66
2022/05/29 10:49:01;;;;;;;;;3.00;2.50;;;;;;;;5006361;28;46514;-69
2022/05/29 10:51:38;;;;;;;;;2.75;2.75;;;;;;;;5007514;28;45545;-69
2022/05/29 10:54:03;;;;;;;;;2.00;2.00;;;;;;;;4990220;28;45563;-68
2022/05/29 10:56:31;;;;;;;;;1.25;1.25;;;;;;;;5004419;28;45487;-68
2022/05/29 10:59:03;;;;;;;;;16.25;10.25;;;;;;;;5008997;28;46205;-68
2022/05/29 11:04:35;;;;;;;;;9.25;9.25;;;;;;;;5014368;28;45510;-69
2022/05/29 11:07:19;;;;;;;;;3.00;3.00;;;;;;;;5003262;28;45391;-67
2022/05/29 11:09:51;;;;;;;;;2.75;2.75;;;;;;;;5011815;28;46282;-69
2022/05/29 11:12:23;;;;;;;;;6.25;5.50;;;;;;;;4994956;28;46181;-64
2022/05/29 11:15:00;;;;;;;;;1.00;1.00;;;;;;;;5011113;28;45893;-65
2022/05/29 11:17:44;;;;;;;;;1.75;1.75;;;;;;;;5009490;28;45457;-66
2022/05/29 11:20:31;;;;;;;;;11.25;10.00;;;;;;;;5011440;28;45820;-66
2022/05/29 11:23:17;;;;;;;;;2.00;2.00;;;;;;;;5015479;28;46028;-65
2022/05/29 11:25:57;;;;;;;;;2.00;2.00;;;;;;;;4993067;28;45599;-64
2022/05/29 11:28:22;;;;;;;;;8.00;7.25;;;;;;;;5004314;28;45549;-67
2022/05/29 11:30:47;;;;;;;;;13.25;10.75;;;;;;;;5012696;28;46549;-65
2022/05/29 12:47:37;;;;;;;;;24.75;23.75;;;;;;;;4866850;28;46758;-66
2022/05/29 12:50:05;;;;;;;;;7.25;7.25;;;;;;;;5028009;28;46104;-66
2022/05/29 12:52:49;;;;;;;;;21.75;18.25;;;;;;;;5016790;28;46253;-64
2022/05/29 12:55:14;;;;;;;;;22.25;20.25;;;;;;;;5026528;28;45458;-65
2022/05/29 12:58:00;;;;;;;;;6.00;4.75;;;;;;;;5042517;28;47945;-65
2022/05/29 13:00:46;;;;;;;;;1.25;1.25;;;;;;;;5035887;28;45531;-66
2022/05/29 13:03:11;;;;;;;;;1.25;1.00;;;;;;;;5033480;28;45392;-65
2022/05/29 13:05:57;;;;;;;;;1.75;1.75;;;;;;;;5032614;28;45697;-66
2022/05/29 13:08:22;;;;;;;;;1.50;1.50;;;;;;;;5013298;28;46270;-67
2022/05/29 13:10:50;;;;;;;;;2.00;1.00;;;;;;;;5018550;28;45688;-65
2022/05/29 13:13:20;;;;;;;;;1.50;1.50;;;;;;;;5031225;28;45733;-66
2022/05/29 13:15:45;;;;;;;;;0.25;0.25;;;;;;;;5030797;28;45236;-65
2022/05/29 13:21:17;;;;;;;;;1.00;1.00;;;;;;;;5047045;28;45429;-65
2022/05/29 13:23:46;;;;;;;;;1.00;1.00;;;;;;;;5021797;28;45505;-66
2022/05/29 13:26:14;;;;;;;;;2.00;1.00;;;;;;;;5017210;28;45397;-65
2022/05/29 13:28:41;;;;;;;;;1.00;1.00;;;;;;;;5016559;28;45683;-66
2022/05/29 13:31:07;;;;;;;;;1.00;1.00;;;;;;;;5026496;28;45535;-66
2022/05/29 13:33:52;;;;;;;;;1.75;1.75;;;;;;;;5009252;28;45571;-67
2022/05/29 13:36:36;;;;;;;;;1.00;1.00;;;;;;;;5029823;28;45553;-68
2022/05/29 13:39:01;;;;;;;;;0.50;0.50;;;;;;;;5003057;28;47593;-65
2022/05/29 13:41:50;;;;;;;;;0.00;0.00;;;;;;;;5026169;28;45442;-64
2022/05/29 13:44:34;;;;;;;;;2.00;2.00;;;;;;;;5017292;28;45962;-65
2022/05/29 13:47:32;;;;;;;;;2.00;2.00;;;;;;;;5028835;28;45912;-67
2022/05/29 13:49:57;;;;;;;;;1.50;1.50;;;;;;;;4933236;28;45624;-66
2022/05/29 13:52:35;;;;;;;;;1.00;1.00;;;;;;;;4949474;28;45775;-67
2022/05/29 13:55:03;;;;;;;;;2.00;2.00;;;;;;;;4933823;28;45412;-67
2022/05/29 14:06:20;;;;;;;;;1.00;1.00;;;;;;;;4933748;28;45550;-67
2022/05/29 14:08:53;;;;;;;;;1.50;1.50;;;;;;;;4917666;28;45514;-67
2022/05/29 14:11:19;;;;;;;;;1.00;1.00;;;;;;;;4933986;28;46422;-67
2022/05/29 14:13:46;;;;;;;;;1.00;1.00;;;;;;;;4949801;28;45939;-67
2022/05/29 14:16:30;;;;;;;;;0.75;0.75;;;;;;;;4917746;28;45536;-64
2022/05/29 14:19:17;;;;;;;;;1.00;1.00;;;;;;;;4934015;28;45469;-66
2022/05/29 14:21:42;;;;;;;;;2.00;1.00;;;;;;;;4923883;28;47854;-68
2022/05/29 14:24:27;;;;;;;;;1.00;1.00;;;;;;;;4950556;28;45555;-67
2022/05/29 14:27:02;;;;;;;;;2.00;2.00;;;;;;;;5014626;28;45545;-67
2022/05/29 14:29:37;;;;;;;;;3.00;1.00;;;;;;;;5007977;28;45644;-66
2022/05/29 14:32:21;;;;;;;;;2.00;2.00;;;;;;;;5017556;28;45876;-67
2022/05/29 14:34:53;;;;;;;;;2.00;1.00;;;;;;;;5027497;28;45564;-66
2022/05/29 14:37:31;;;;;;;;;8.75;5.25;;;;;;;;5014972;28;45417;-67
2022/05/29 14:39:56;;;;;;;;;15.75;12.75;;;;;;;;5009021;28;45566;-65
2022/05/29 14:42:23;;;;;;;;;25.00;20.25;;;;;;;;5014846;28;48446;-66
2022/05/29 14:45:00;;;;;;;;;2.50;2.50;;;;;;;;5013072;28;45410;-68
2022/05/29 14:47:36;;;;;;;;;1.25;1.00;;;;;;;;5011154;28;45553;-66
2022/05/29 14:50:16;;;;;;;;;2.25;2.25;;;;;;;;5023288;28;45458;-65
2022/05/29 14:53:00;;;;;;;;;1.25;0.25;;;;;;;;5014439;28;47611;-67
2022/05/29 14:55:29;;;;;;;;;1.00;1.00;;;;;;;;5028403;28;45471;-68
2022/05/29 14:57:56;;;;;;;;;1.00;1.00;;;;;;;;5025356;28;45391;-66
2022/05/29 15:00:21;;;;;;;;;0.75;0.75;;;;;;;;5031070;28;45521;-67
2022/05/29 15:02:47;;;;;;;;;1.25;1.25;;;;;;;;5013361;28;47384;-66
2022/05/29 15:05:14;;;;;;;;;1.00;1.00;;;;;;;;5024532;28;45343;-67
2022/05/29 15:10:30;;;;;;;;;2.75;2.75;;;;;;;;5019848;28;45209;-65
2022/05/29 15:13:00;;;;;;;;;1.00;1.00;;;;;;;;5030031;28;47022;-65
2022/05/29 15:15:27;;;;;;;;;1.25;1.00;;;;;;;;5025630;28;45433;-67
2022/05/29 15:18:04;;;;;;;;;4.50;4.50;;;;;;;;5009633;28;45410;-67
2022/05/29 15:26:03;;;;;;;;;1.00;1.00;;;;;;;;5030582;28;47605;-66
2022/05/29 15:28:29;;;;;;;;;1.25;1.25;;;;;;;;5027731;28;45422;-67
2022/05/29 15:30:55;;;;;;;;;1.00;1.00;;;;;;;;5020764;28;45768;-68
2022/05/29 15:33:26;;;;;;;;;1.50;1.50;;;;;;;;5019689;28;45446;-67
2022/05/29 15:35:56;;;;;;;;;1.50;1.25;;;;;;;;5027949;28;45441;-67
2022/05/29 15:38:36;;;;;;;;;1.00;1.00;;;;;;;;5022852;28;45309;-66
2022/05/29 15:41:08;;;;;;;;;1.00;1.00;;;;;;;;4997952;28;45465;-67
2022/05/29 15:43:52;;;;;;;;;1.25;1.25;;;;;;;;5001578;28;47609;-66
2022/05/29 15:46:21;;;;;;;;;2.00;2.00;;;;;;;;5028628;28;45474;-65
2022/05/29 15:48:46;;;;;;;;;1.50;1.50;;;;;;;;5025214;28;45652;-66
2022/05/29 15:51:11;;;;;;;;;0.75;0.75;;;;;;;;5032282;28;45734;-66
2022/05/29 15:53:37;;;;;;;;;1.75;1.75;;;;;;;;5033172;28;45805;-65
2022/05/29 15:56:02;;;;;;;;;2.00;2.00;;;;;;;;5031424;28;45390;-66
2022/05/29 15:58:30;;;;;;;;;2.25;2.25;;;;;;;;5028340;28;45868;-66
2022/05/29 16:01:04;;;;;;;;;3.00;1.50;;;;;;;;5031827;28;45435;-66
2022/05/29 16:03:30;;;;;;;;;1.75;1.75;;;;;;;;5012177;28;48646;-66
2022/05/29 16:06:14;;;;;;;;;2.00;2.00;;;;;;;;5016170;28;45309;-66
2022/05/29 16:08:40;;;;;;;;;2.00;2.00;;;;;;;;5033255;28;45349;-65
2022/05/29 16:11:06;;;;;;;;;2.25;2.00;;;;;;;;5032010;28;45416;-65
2022/05/29 16:13:39;;;;;;;;;3.00;3.00;;;;;;;;5031262;28;45334;-66
2022/05/29 16:16:10;;;;;;;;;1.75;1.75;;;;;;;;5031235;28;45402;-66
2022/05/29 16:18:36;;;;;;;;;3.25;2.50;;;;;;;;5031117;28;45442;-67
2022/05/29 16:21:01;;;;;;;;;1.50;1.50;;;;;;;;5034534;28;45387;-66
2022/05/29 16:23:49;;;;;;;;;3.25;2.75;;;;;;;;5032759;28;45663;-66
2022/05/29 16:26:18;;;;;;;;;5.00;3.00;;;;;;;;4999823;28;45347;-65
2022/05/29 16:28:51;;;;;;;;;5.50;4.00;;;;;;;;4993411;28;45539;-64
2022/05/29 16:31:24;;;;;;;;;2.00;1.75;;;;;;;;4993906;28;45650;-65
2022/05/29 16:34:04;;;;;;;;;2.75;2.75;;;;;;;;4976349;28;48782;-66
2022/05/29 16:36:31;;;;;;;;;2.75;1.75;;;;;;;;4981257;28;45426;-65
2022/05/29 16:50:21;;;;;;;;;4.75;3.00;;;;;;;;4971518;28;45506;-65
2022/05/29 16:53:19;;;;;;;;;3.25;3.25;;;;;;;;4974748;28;45540;-65
2022/05/29 16:55:44;;;;;;;;;3.25;3.00;;;;;;;;4916616;28;46259;-63
2022/05/29 16:58:11;;;;;;;;;4.00;2.00;;;;;;;;4916816;28;45450;-63
2022/05/29 17:01:09;;;;;;;;;3.00;3.00;;;;;;;;4900149;28;45555;-63
2022/05/29 17:03:54;;;;;;;;;2.50;2.50;;;;;;;;4907023;28;45476;-64
2022/05/29 17:06:24;;;;;;;;;2.75;2.00;;;;;;;;4905575;28;45529;-63
2022/05/29 17:08:54;;;;;;;;;2.00;1.75;;;;;;;;4907541;28;45440;-64
2022/05/29 17:11:22;;;;;;;;;2.00;2.00;;;;;;;;4909572;28;45345;-65
2022/05/29 17:13:48;;;;;;;;;2.25;2.00;;;;;;;;4916212;28;45326;-66
2022/05/29 17:16:13;;;;;;;;;3.25;2.75;;;;;;;;4915951;28;45533;-66
2022/05/29 17:18:39;;;;;;;;;2.75;2.75;;;;;;;;4915695;28;45369;-65